createdAt,value
2018-07-13T00:00:56.765Z,99809.00
2018-07-13T00:03:01.310Z,99811.00
2018-07-13T00:05:06.407Z,99822.00
2018-07-13T00:07:10.935Z,99805.00
2018-07-13T00:09:15.335Z,99805.00
2018-07-13T00:11:19.784Z,99808.00
2018-07-13T00:13:24.293Z,99805.00
2018-07-13T00:15:29.714Z,99808.00
2018-07-13T00:17:34.255Z,99810.00
2018-07-13T00:19:39.279Z,99809.00
2018-07-13T00:21:43.786Z,99819.00
2018-07-13T00:23:48.451Z,99826.00
2018-07-13T00:25:53.100Z,99819.00
2018-07-13T00:27:57.589Z,99826.00
2018-07-13T00:30:02.024Z,99813.00
2018-07-13T00:32:06.614Z,99826.00
2018-07-13T00:34:11.139Z,99826.00
2018-07-13T00:36:15.617Z,99830.00
2018-07-13T00:38:20.094Z,99829.00
2018-07-13T00:40:24.518Z,99826.00
2018-07-13T00:42:29.063Z,99830.00
2018-07-13T00:44:33.517Z,99832.00
2018-07-13T00:46:37.976Z,99827.00
2018-07-13T00:48:42.493Z,99826.00
2018-07-13T00:50:46.937Z,99827.00
2018-07-13T00:52:51.370Z,99830.00
2018-07-13T00:54:55.807Z,99828.00
2018-07-13T00:57:00.275Z,99828.00
2018-07-13T00:59:07.046Z,99830.00
2018-07-13T01:01:13.650Z,99830.00
2018-07-13T01:03:21.195Z,99833.00
2018-07-13T01:05:27.358Z,99837.00
2018-07-13T01:07:33.238Z,99844.00
2018-07-13T01:09:39.295Z,99840.00
2018-07-13T01:11:46.768Z,99835.00
2018-07-13T01:13:53.027Z,99838.00
2018-07-13T01:15:58.758Z,99831.00
2018-07-13T01:18:07.745Z,99826.00
2018-07-13T01:20:14.339Z,99835.00
2018-07-13T01:22:23.560Z,99837.00
2018-07-13T01:24:32.020Z,99834.00
2018-07-13T01:26:37.406Z,99831.00
2018-07-13T01:28:44.816Z,99836.00
2018-07-13T01:30:51.903Z,99830.00
2018-07-13T01:33:01.447Z,99830.00
2018-07-13T01:35:08.651Z,99836.00
2018-07-13T01:37:16.611Z,99838.00
2018-07-13T01:39:24.738Z,99840.00
2018-07-13T01:41:29.355Z,99846.00
2018-07-13T01:43:33.833Z,99836.00
2018-07-13T01:45:38.337Z,99841.00
2018-07-13T01:47:42.787Z,99837.00
2018-07-13T01:49:47.229Z,99841.00
2018-07-13T01:51:51.728Z,99843.00
2018-07-13T01:53:56.213Z,99841.00
2018-07-13T01:56:00.646Z,99842.00
2018-07-13T01:58:05.226Z,99839.00
2018-07-13T02:00:13.821Z,99841.00
2018-07-13T02:02:18.398Z,99847.00
2018-07-13T02:04:22.857Z,99846.00
2018-07-13T02:06:27.365Z,99846.00
2018-07-13T02:08:33.008Z,99843.00
2018-07-13T02:10:40.338Z,99848.00
2018-07-13T02:12:47.692Z,99853.00
2018-07-13T02:14:53.967Z,99856.00
2018-07-13T02:16:59.731Z,99851.00
2018-07-13T02:19:08.904Z,99852.00
2018-07-13T02:21:15.889Z,99856.00
2018-07-13T02:23:23.073Z,99846.00
2018-07-13T02:25:27.726Z,99846.00
2018-07-13T02:27:32.550Z,99844.00
2018-07-13T02:29:37.047Z,99847.00
2018-07-13T02:31:41.485Z,99846.00
2018-07-13T02:33:45.670Z,99854.00
2018-07-13T02:35:50.151Z,99857.00
2018-07-13T02:37:54.300Z,99852.00
2018-07-13T02:39:59.759Z,99852.00
2018-07-13T02:42:04.276Z,99845.00
2018-07-13T02:44:08.813Z,99855.00
2018-07-13T02:46:13.262Z,99849.00
2018-07-13T02:48:18.537Z,99854.00
2018-07-13T02:50:22.939Z,99852.00
2018-07-13T02:52:27.427Z,99848.00
2018-07-13T02:54:31.904Z,99855.00
2018-07-13T02:56:36.347Z,99849.00
2018-07-13T02:58:40.840Z,99863.00
2018-07-13T03:00:50.344Z,99857.00
2018-07-13T03:02:57.129Z,99859.00
2018-07-13T03:05:01.787Z,99862.00
2018-07-13T03:07:06.413Z,99861.00
2018-07-13T03:09:12.366Z,99861.00
2018-07-13T03:11:16.846Z,99865.00
2018-07-13T03:13:21.328Z,99861.00
2018-07-13T03:15:25.811Z,99861.00
2018-07-13T03:17:30.711Z,99869.00
2018-07-13T03:19:35.204Z,99861.00
2018-07-13T03:21:40.348Z,99863.00
2018-07-13T03:23:44.830Z,99865.00
2018-07-13T03:25:49.375Z,99871.00
2018-07-13T03:27:53.771Z,99863.00
2018-07-13T03:29:58.250Z,99866.00
2018-07-13T03:32:02.748Z,99866.00
2018-07-13T03:34:11.140Z,99866.00
2018-07-13T03:36:17.648Z,99869.00
2018-07-13T03:38:27.614Z,99879.00
2018-07-13T03:40:35.717Z,99866.00
2018-07-13T03:42:41.895Z,99864.00
2018-07-13T03:44:47.677Z,99873.00
2018-07-13T03:46:53.470Z,99872.00
2018-07-13T03:48:58.905Z,99874.00
2018-07-13T03:51:04.470Z,99878.00
2018-07-13T03:53:11.998Z,99876.00
2018-07-13T03:55:20.555Z,99879.00
2018-07-13T03:57:26.595Z,99877.00
2018-07-13T03:59:33.089Z,99884.00
2018-07-13T04:01:40.850Z,99885.00
2018-07-13T04:03:46.362Z,99877.00
2018-07-13T04:05:53.485Z,99877.00
2018-07-13T04:07:59.274Z,99882.00
2018-07-13T04:10:06.602Z,99882.00
2018-07-13T04:12:13.262Z,99885.00
2018-07-13T04:14:21.448Z,99889.00
2018-07-13T04:16:25.972Z,99890.00
2018-07-13T04:18:30.482Z,99881.00
2018-07-13T04:20:35.111Z,99882.00
2018-07-13T04:22:40.762Z,99883.00
2018-07-13T04:24:45.391Z,99874.00
2018-07-13T04:26:50.597Z,99882.00
2018-07-13T04:28:55.445Z,99878.00
2018-07-13T04:31:00.878Z,99876.00
2018-07-13T04:33:05.472Z,99876.00
2018-07-13T04:35:10.000Z,99879.00
2018-07-13T04:37:14.475Z,99875.00
2018-07-13T04:39:18.938Z,99862.00
2018-07-13T04:41:23.511Z,99867.00
2018-07-13T04:43:28.075Z,99877.00
2018-07-13T04:45:32.619Z,99871.00
2018-07-13T04:47:37.222Z,99862.00
2018-07-13T04:49:41.806Z,99865.00
2018-07-13T04:51:46.378Z,99865.00
2018-07-13T04:53:55.190Z,99875.00
2018-07-13T04:56:00.838Z,99866.00
2018-07-13T04:58:05.479Z,99868.00
2018-07-13T05:00:10.059Z,99870.00
2018-07-13T05:02:16.472Z,99872.00
2018-07-13T05:04:23.974Z,99876.00
2018-07-13T05:06:28.543Z,99866.00
2018-07-13T05:08:33.199Z,99863.00
2018-07-13T05:10:37.718Z,99867.00
2018-07-13T05:12:44.176Z,99870.00
2018-07-13T05:14:50.231Z,99873.00
2018-07-13T05:16:54.792Z,99867.00
2018-07-13T05:18:59.261Z,99878.00
2018-07-13T05:21:03.907Z,99875.00
2018-07-13T05:23:08.531Z,99871.00
2018-07-13T05:25:13.111Z,99873.00
2018-07-13T05:27:17.703Z,99877.00
2018-07-13T05:29:22.294Z,99876.00
2018-07-13T05:31:26.872Z,99876.00
2018-07-13T05:33:31.382Z,99877.00
2018-07-13T05:35:35.975Z,99873.00
2018-07-13T05:37:41.194Z,99880.00
2018-07-13T05:39:45.771Z,99872.00
2018-07-13T05:41:50.302Z,99875.00
2018-07-13T05:43:55.199Z,99874.00
2018-07-13T05:46:00.123Z,99889.00
2018-07-13T05:48:04.759Z,99872.00
2018-07-13T05:50:09.339Z,99888.00
2018-07-13T05:52:13.983Z,99883.00
2018-07-13T05:54:18.690Z,99889.00
2018-07-13T05:56:23.355Z,99881.00
2018-07-13T05:58:27.919Z,99889.00
2018-07-13T06:00:32.496Z,99892.00
2018-07-13T06:02:37.138Z,99895.00
2018-07-13T06:04:41.682Z,99897.00
2018-07-13T06:06:46.445Z,99896.00
2018-07-13T06:08:50.970Z,99894.00
2018-07-13T06:10:55.657Z,99888.00
2018-07-13T06:13:01.611Z,99897.00
2018-07-13T06:15:06.593Z,99890.00
2018-07-13T06:17:11.226Z,99894.00
2018-07-13T06:19:16.003Z,99900.00
2018-07-13T06:21:21.550Z,99882.00
2018-07-13T06:23:26.196Z,99893.00
2018-07-13T06:25:30.874Z,99892.00
2018-07-13T06:27:35.554Z,99887.00
2018-07-13T06:29:42.295Z,99887.00
2018-07-13T06:31:46.965Z,99890.00
2018-07-13T06:33:51.510Z,99883.00
2018-07-13T06:35:56.324Z,99894.00
2018-07-13T06:38:01.528Z,99880.00
2018-07-13T06:40:06.374Z,99878.00
2018-07-13T06:42:10.898Z,99877.00
2018-07-13T06:44:15.433Z,99876.00
2018-07-13T06:46:19.911Z,99881.00
2018-07-13T06:48:24.451Z,99881.00
2018-07-13T06:50:29.030Z,99877.00
2018-07-13T06:52:33.610Z,99881.00
2018-07-13T06:54:38.108Z,99882.00
2018-07-13T06:56:42.784Z,99878.00
2018-07-13T06:59:08.835Z,99891.00
2018-07-13T07:01:13.822Z,99891.00
2018-07-13T07:03:18.403Z,99889.00
2018-07-13T07:05:54.076Z,99894.00
2018-07-13T07:07:58.606Z,99893.00
2018-07-13T07:10:03.303Z,99895.00
2018-07-13T07:12:24.758Z,99899.00
2018-07-13T07:14:29.210Z,99895.00
2018-07-13T07:16:33.774Z,99902.00
2018-07-13T07:18:38.452Z,99894.00
2018-07-13T07:20:42.973Z,99889.00
2018-07-13T07:22:47.674Z,99892.00
2018-07-13T07:24:52.163Z,99896.00
2018-07-13T07:26:56.623Z,99886.00
2018-07-13T07:29:01.779Z,99888.00
2018-07-13T07:31:06.429Z,99895.00
2018-07-13T07:33:10.894Z,99891.00
2018-07-13T07:35:15.355Z,99896.00
2018-07-13T07:37:19.891Z,99893.00
2018-07-13T07:39:23.989Z,99889.00
2018-07-13T07:41:28.538Z,99891.00
2018-07-13T07:43:33.206Z,99897.00
2018-07-13T07:45:37.707Z,99892.00
2018-07-13T07:47:42.243Z,99890.00
2018-07-13T07:49:46.855Z,99895.00
2018-07-13T07:51:51.436Z,99900.00
2018-07-13T07:53:55.924Z,99893.00
2018-07-13T07:56:00.363Z,99904.00
2018-07-13T07:58:05.147Z,99904.00
2018-07-13T08:00:09.630Z,99904.00
2018-07-13T08:02:14.143Z,99899.00
2018-07-13T08:04:18.724Z,99897.00
2018-07-13T08:06:23.368Z,99898.00
2018-07-13T08:08:27.799Z,99892.00
2018-07-13T08:10:32.374Z,99901.00
2018-07-13T08:12:37.191Z,99902.00
2018-07-13T08:14:42.052Z,99904.00
2018-07-13T08:16:48.645Z,99903.00
2018-07-13T08:18:53.264Z,99903.00
2018-07-13T08:20:57.932Z,99896.00
2018-07-13T08:23:09.723Z,99912.00
2018-07-13T08:25:15.160Z,99901.00
2018-07-13T08:27:22.750Z,99902.00
2018-07-13T08:29:33.299Z,99900.00
2018-07-13T08:31:37.802Z,99898.00
2018-07-13T08:33:42.282Z,99906.00
2018-07-13T08:35:46.746Z,99911.00
2018-07-13T08:37:51.286Z,99918.00
2018-07-13T08:39:55.802Z,99906.00
2018-07-13T08:42:00.414Z,99909.00
2018-07-13T08:44:05.249Z,99912.00
2018-07-13T08:46:09.857Z,99902.00
2018-07-13T08:48:14.387Z,99902.00
2018-07-13T08:50:18.624Z,99904.00
2018-07-13T08:52:23.000Z,99908.00
2018-07-13T08:54:27.618Z,99908.00
2018-07-13T08:56:32.243Z,99916.00
2018-07-13T08:58:36.610Z,99911.00
2018-07-13T09:00:42.073Z,99920.00
2018-07-13T09:02:46.581Z,99915.00
2018-07-13T09:04:51.231Z,99917.00
2018-07-13T09:06:55.778Z,99913.00
2018-07-13T09:09:00.879Z,99909.00
2018-07-13T09:11:05.538Z,99916.00
2018-07-13T09:13:10.107Z,99905.00
2018-07-13T09:15:14.665Z,99908.00
2018-07-13T09:17:19.164Z,99906.00
2018-07-13T09:19:27.597Z,99909.00
2018-07-13T09:21:34.343Z,99907.00
2018-07-13T09:23:38.994Z,99911.00
2018-07-13T09:25:45.081Z,99901.00
2018-07-13T09:27:49.758Z,99910.00
2018-07-13T09:29:54.740Z,99901.00
2018-07-13T09:32:04.537Z,99909.00
2018-07-13T09:34:09.180Z,99901.00
2018-07-13T09:36:13.893Z,99907.00
2018-07-13T09:38:18.427Z,99912.00
2018-07-13T09:40:23.466Z,99906.00
2018-07-13T09:42:27.971Z,99904.00
2018-07-13T09:44:32.934Z,99908.00
2018-07-13T09:46:37.562Z,99910.00
2018-07-13T09:48:42.763Z,99909.00
2018-07-13T09:50:47.250Z,99914.00
2018-07-13T09:52:51.802Z,99915.00
2018-07-13T09:54:56.395Z,99914.00
2018-07-13T09:57:02.142Z,99915.00
2018-07-13T09:59:06.778Z,99908.00
2018-07-13T10:01:16.671Z,99916.00
2018-07-13T10:03:21.386Z,99910.00
2018-07-13T10:05:26.056Z,99919.00
2018-07-13T10:07:30.591Z,99921.00
2018-07-13T10:09:35.208Z,99919.00
2018-07-13T10:11:40.129Z,99921.00
2018-07-13T10:13:44.920Z,99927.00
2018-07-13T10:15:49.606Z,99925.00
2018-07-13T10:17:54.169Z,99922.00
2018-07-13T10:19:58.710Z,99925.00
2018-07-13T10:22:03.363Z,99922.00
2018-07-13T10:24:08.413Z,99925.00
2018-07-13T10:26:18.891Z,99919.00
2018-07-13T10:28:23.427Z,99926.00
2018-07-13T10:30:27.986Z,99925.00
2018-07-13T10:32:33.447Z,99929.00
2018-07-13T10:34:38.163Z,99922.00
2018-07-13T10:36:48.894Z,99922.00
2018-07-13T10:38:54.152Z,99916.00
2018-07-13T10:40:58.712Z,99919.00
2018-07-13T10:43:03.560Z,99919.00
2018-07-13T10:45:08.534Z,99923.00
2018-07-13T10:47:13.150Z,99915.00
2018-07-13T10:49:17.734Z,99925.00
2018-07-13T10:51:23.114Z,99926.00
2018-07-13T10:53:27.562Z,99922.00
2018-07-13T10:55:32.115Z,99920.00
2018-07-13T10:57:36.625Z,99917.00
2018-07-13T10:59:41.056Z,99916.00
2018-07-13T11:01:46.121Z,99914.00
2018-07-13T11:03:50.837Z,99912.00
2018-07-13T11:05:55.387Z,99908.00
2018-07-13T11:07:59.835Z,99911.00
2018-07-13T11:10:04.392Z,99919.00
2018-07-13T11:12:08.954Z,99909.00
2018-07-13T11:14:13.483Z,99913.00
2018-07-13T11:16:17.930Z,99912.00
2018-07-13T11:18:23.265Z,99912.00
2018-07-13T11:20:27.818Z,99906.00
2018-07-13T11:22:32.336Z,99910.00
2018-07-13T11:24:36.771Z,99905.00
2018-07-13T11:26:41.261Z,99906.00
2018-07-13T11:28:45.754Z,99908.00
2018-07-13T11:30:50.182Z,99911.00
2018-07-13T11:32:54.670Z,99912.00
2018-07-13T11:35:00.909Z,99903.00
2018-07-13T11:37:05.697Z,99908.00
2018-07-13T11:39:10.026Z,99908.00
2018-07-13T11:41:15.299Z,99906.00
2018-07-13T11:43:19.795Z,99908.00
2018-07-13T11:45:24.287Z,99907.00
2018-07-13T11:47:28.726Z,99911.00
2018-07-13T11:49:33.179Z,99903.00
2018-07-13T11:51:37.910Z,99897.00
2018-07-13T11:53:43.426Z,99902.00
2018-07-13T11:55:48.933Z,99899.00
2018-07-13T11:57:53.630Z,99896.00
2018-07-13T11:59:58.300Z,99902.00
2018-07-13T12:02:03.817Z,99893.00
2018-07-13T12:04:08.438Z,99891.00
2018-07-13T12:06:13.046Z,99889.00
2018-07-13T12:08:17.748Z,99891.00
2018-07-13T12:10:23.334Z,99888.00
2018-07-13T12:12:28.369Z,99892.00
2018-07-13T12:14:32.791Z,99876.00
2018-07-13T12:16:37.546Z,99887.00
2018-07-13T12:18:41.944Z,99889.00
2018-07-13T12:20:46.654Z,99887.00
2018-07-13T12:22:51.495Z,99887.00
2018-07-13T12:24:59.760Z,99895.00
2018-07-13T12:27:04.337Z,99879.00
2018-07-13T12:29:08.951Z,99879.00
2018-07-13T12:31:13.467Z,99877.00
2018-07-13T12:33:17.990Z,99883.00
2018-07-13T12:35:23.667Z,99874.00
2018-07-13T12:37:28.414Z,99879.00
2018-07-13T12:39:34.142Z,99881.00
2018-07-13T12:41:39.216Z,99873.00
2018-07-13T12:43:43.949Z,99887.00
2018-07-13T12:45:48.573Z,99873.00
2018-07-13T12:47:53.179Z,99873.00
2018-07-13T12:49:57.682Z,99875.00
2018-07-13T12:52:02.514Z,99866.00
2018-07-13T12:54:07.697Z,99873.00
2018-07-13T12:56:12.103Z,99875.00
2018-07-13T12:58:16.579Z,99876.00
2018-07-13T13:00:21.223Z,99869.00
2018-07-13T13:02:25.676Z,99877.00
2018-07-13T13:04:30.289Z,99875.00
2018-07-13T13:06:35.115Z,99873.00
2018-07-13T13:08:39.729Z,99871.00
2018-07-13T13:10:44.291Z,99875.00
2018-07-13T13:12:48.521Z,99869.00
2018-07-13T13:14:53.063Z,99866.00
2018-07-13T13:16:57.201Z,99869.00
2018-07-13T13:19:01.692Z,99876.00
2018-07-13T13:21:06.526Z,99870.00
2018-07-13T13:23:11.179Z,99862.00
2018-07-13T13:25:15.902Z,99871.00
2018-07-13T13:27:20.337Z,99868.00
2018-07-13T13:29:25.222Z,99867.00
2018-07-13T13:31:29.593Z,99861.00
2018-07-13T13:33:34.179Z,99862.00
2018-07-13T13:35:38.838Z,99862.00
2018-07-13T13:37:44.273Z,99864.00
2018-07-13T13:39:50.600Z,99866.00
2018-07-13T13:41:55.498Z,99870.00
2018-07-13T13:44:00.119Z,99868.00
2018-07-13T13:46:06.470Z,99872.00
2018-07-13T13:48:11.043Z,99864.00
2018-07-13T13:50:15.543Z,99876.00
2018-07-13T13:52:20.061Z,99875.00
2018-07-13T13:54:24.575Z,99870.00
2018-07-13T13:56:29.388Z,99877.00
2018-07-13T13:58:33.990Z,99866.00
2018-07-13T14:00:38.656Z,99860.00
2018-07-13T14:02:44.275Z,99857.00
2018-07-13T14:04:48.718Z,99858.00
2018-07-13T14:06:53.318Z,99861.00
2018-07-13T14:08:57.926Z,99855.00
2018-07-13T14:11:02.435Z,99854.00
2018-07-13T14:13:07.211Z,99857.00
2018-07-13T14:15:11.805Z,99857.00
2018-07-13T14:17:16.307Z,99853.00
2018-07-13T14:19:20.902Z,99855.00
2018-07-13T14:21:25.634Z,99845.00
2018-07-13T14:23:30.215Z,99848.00
2018-07-13T14:25:34.759Z,99846.00
2018-07-13T14:27:39.428Z,99840.00
2018-07-13T14:29:43.958Z,99846.00
2018-07-13T14:31:48.586Z,99850.00
2018-07-13T14:33:53.066Z,99846.00
2018-07-13T14:35:57.783Z,99851.00
2018-07-13T14:38:02.513Z,99838.00
2018-07-13T14:40:07.120Z,99847.00
2018-07-13T14:42:11.708Z,99843.00
2018-07-13T14:44:16.768Z,99844.00
2018-07-13T14:46:21.275Z,99841.00
2018-07-13T14:48:25.716Z,99839.00
2018-07-13T14:50:30.502Z,99839.00
2018-07-13T14:52:35.056Z,99839.00
2018-07-13T14:54:39.672Z,99838.00
2018-07-13T14:56:44.495Z,99834.00
2018-07-13T14:58:49.230Z,99829.00
2018-07-13T15:00:53.835Z,99826.00
2018-07-13T15:02:58.411Z,99825.00
2018-07-13T15:05:03.843Z,99824.00
2018-07-13T15:07:08.372Z,99824.00
2018-07-13T15:09:12.837Z,99828.00
2018-07-13T15:11:17.059Z,99825.00
2018-07-13T15:13:22.172Z,99824.00
2018-07-13T15:15:27.456Z,99827.00
2018-07-13T15:17:32.155Z,99833.00
2018-07-13T15:19:36.998Z,99823.00
2018-07-13T15:21:42.057Z,99812.00
2018-07-13T15:23:46.771Z,99824.00
2018-07-13T15:25:51.312Z,99825.00
2018-07-13T15:27:55.958Z,99824.00
2018-07-13T15:30:00.411Z,99819.00
2018-07-13T15:32:05.540Z,99817.00
2018-07-13T15:34:10.462Z,99817.00
2018-07-13T15:36:15.150Z,99810.00
2018-07-13T15:38:19.757Z,99804.00
2018-07-13T15:40:25.535Z,99807.00
2018-07-13T15:42:29.690Z,99807.00
2018-07-13T15:44:34.410Z,99808.00
2018-07-13T15:46:38.839Z,99809.00
2018-07-13T15:48:43.282Z,99812.00
2018-07-13T15:50:47.718Z,99804.00
2018-07-13T15:52:54.136Z,99808.00
2018-07-13T15:55:01.714Z,99812.00
2018-07-13T15:57:09.445Z,99811.00
2018-07-13T15:59:16.704Z,99811.00
2018-07-13T16:01:21.339Z,99807.00
2018-07-13T16:03:25.911Z,99808.00
2018-07-13T16:05:30.419Z,99807.00
2018-07-13T16:07:34.895Z,99808.00
2018-07-13T16:09:39.057Z,99809.00
2018-07-13T16:11:43.516Z,99811.00
2018-07-13T16:13:47.960Z,99809.00
2018-07-13T16:15:52.426Z,99803.00
2018-07-13T16:17:57.389Z,99806.00
2018-07-13T16:20:01.899Z,99807.00
2018-07-13T16:22:06.392Z,99811.00
2018-07-13T16:24:11.124Z,99812.00
2018-07-13T16:26:15.582Z,99801.00
2018-07-13T16:28:20.091Z,99811.00
2018-07-13T16:30:25.413Z,99806.00
2018-07-13T16:32:29.864Z,99802.00
2018-07-13T16:34:34.446Z,99804.00
2018-07-13T16:36:38.935Z,99803.00
2018-07-13T16:38:43.406Z,99800.00
2018-07-13T16:40:47.875Z,99803.00
2018-07-13T16:42:52.438Z,99798.00
2018-07-13T16:44:57.090Z,99797.00
2018-07-13T16:47:01.551Z,99799.00
2018-07-13T16:49:06.220Z,99801.00
2018-07-13T16:51:10.746Z,99792.00
2018-07-13T16:53:15.202Z,99792.00
2018-07-13T16:55:19.726Z,99797.00
2018-07-13T16:57:24.170Z,99797.00
2018-07-13T16:59:28.616Z,99795.00
2018-07-13T17:01:33.063Z,99794.00
2018-07-13T17:03:37.614Z,99794.00
2018-07-13T17:05:42.124Z,99786.00
2018-07-13T17:07:46.568Z,99784.00
2018-07-13T17:09:51.038Z,99786.00
2018-07-13T17:11:55.562Z,99779.00
2018-07-13T17:14:00.054Z,99780.00
2018-07-13T17:16:04.541Z,99774.00
2018-07-13T17:18:08.993Z,99777.00
2018-07-13T17:20:13.543Z,99780.00
2018-07-13T17:22:18.039Z,99779.00
2018-07-13T17:24:22.764Z,99775.00
2018-07-13T17:26:27.328Z,99774.00
2018-07-13T17:28:31.776Z,99773.00
2018-07-13T17:30:36.947Z,99775.00
2018-07-13T17:32:41.392Z,99775.00
2018-07-13T17:34:46.796Z,99774.00
2018-07-13T17:36:51.238Z,99777.00
2018-07-13T17:38:55.678Z,99777.00
2018-07-13T17:41:00.515Z,99770.00
2018-07-13T17:43:05.045Z,99781.00
2018-07-13T17:45:09.491Z,99774.00
2018-07-13T17:47:14.647Z,99771.00
2018-07-13T17:49:19.224Z,99781.00
2018-07-13T17:51:23.730Z,99772.00
2018-07-13T17:53:28.244Z,99770.00
2018-07-13T17:55:32.722Z,99765.00
2018-07-13T17:57:37.253Z,99769.00
2018-07-13T17:59:41.719Z,99772.00
2018-07-13T18:01:47.816Z,99766.00
2018-07-13T18:03:52.271Z,99766.00
2018-07-13T18:05:56.774Z,99761.00
2018-07-13T18:08:01.245Z,99765.00
2018-07-13T18:10:05.795Z,99764.00
2018-07-13T18:12:10.207Z,99768.00
2018-07-13T18:14:14.719Z,99768.00
2018-07-13T18:16:19.157Z,99770.00
2018-07-13T18:18:23.621Z,99759.00
2018-07-13T18:20:28.068Z,99763.00
2018-07-13T18:22:32.309Z,99758.00
2018-07-13T18:24:36.823Z,99756.00
2018-07-13T18:26:41.665Z,99756.00
2018-07-13T18:28:46.151Z,99768.00
2018-07-13T18:30:50.675Z,99768.00
2018-07-13T18:32:55.128Z,99764.00
2018-07-13T18:34:59.602Z,99768.00
2018-07-13T18:37:04.274Z,99767.00
2018-07-13T18:41:20.882Z,99761.00
2018-07-13T18:43:25.333Z,99768.00
2018-07-13T18:45:30.959Z,99760.00
2018-07-13T18:47:35.433Z,99763.00
2018-07-13T18:49:39.954Z,99763.00
2018-07-13T18:51:44.488Z,99763.00
2018-07-13T18:53:49.015Z,99763.00
2018-07-13T18:55:53.515Z,99760.00
2018-07-13T18:57:57.994Z,99763.00
2018-07-13T19:00:02.537Z,99766.00
2018-07-13T19:02:08.362Z,99761.00
2018-07-13T19:04:12.851Z,99770.00
2018-07-13T19:06:17.486Z,99773.00
2018-07-13T19:08:21.922Z,99771.00
2018-07-13T19:10:26.366Z,99775.00
2018-07-13T19:12:30.975Z,99768.00
2018-07-13T19:14:35.437Z,99772.00
2018-07-13T19:16:40.999Z,99773.00
2018-07-13T19:18:45.402Z,99768.00
2018-07-13T19:20:52.431Z,99772.00
2018-07-13T19:22:57.826Z,99767.00
2018-07-13T19:25:03.402Z,99777.00
2018-07-13T19:27:08.628Z,99778.00
2018-07-13T19:29:14.338Z,99769.00
2018-07-13T19:31:19.625Z,99772.00
2018-07-13T19:33:25.213Z,99771.00
2018-07-13T19:35:30.069Z,99780.00
2018-07-13T19:37:35.079Z,99779.00
2018-07-13T19:39:39.783Z,99778.00
2018-07-13T19:41:44.710Z,99786.00
2018-07-13T19:43:49.401Z,99785.00
2018-07-13T19:45:54.975Z,99780.00
2018-07-13T19:47:59.704Z,99791.00
2018-07-13T19:50:04.505Z,99788.00
2018-07-13T19:52:09.040Z,99793.00
2018-07-13T19:54:13.718Z,99796.00
2018-07-13T19:56:18.226Z,99803.00
2018-07-13T19:58:22.681Z,99808.00
2018-07-13T20:00:27.114Z,99807.00
2018-07-13T20:02:31.555Z,99817.00
2018-07-13T20:04:36.406Z,99817.00
2018-07-13T20:06:40.930Z,99819.00
2018-07-13T20:08:45.370Z,99811.00
2018-07-13T20:10:49.906Z,99812.00
2018-07-13T20:12:54.429Z,99820.00
2018-07-13T20:14:58.854Z,99811.00
2018-07-13T20:17:03.985Z,99825.00
2018-07-13T20:19:09.131Z,99828.00
2018-07-13T20:21:13.260Z,99822.00
2018-07-13T20:23:17.721Z,99826.00
2018-07-13T20:25:22.122Z,99826.00
2018-07-13T20:27:26.292Z,99827.00
2018-07-13T20:29:30.735Z,99833.00
2018-07-13T20:31:35.340Z,99829.00
2018-07-13T20:33:39.794Z,99828.00
2018-07-13T20:35:44.260Z,99830.00
2018-07-13T20:37:49.386Z,99822.00
2018-07-13T20:39:53.831Z,99830.00
2018-07-13T20:41:58.361Z,99836.00
2018-07-13T20:44:02.903Z,99829.00
2018-07-13T20:46:07.470Z,99840.00
2018-07-13T20:48:13.569Z,99838.00
2018-07-13T20:50:18.048Z,99832.00
2018-07-13T20:52:25.453Z,99826.00
2018-07-13T20:54:32.229Z,99838.00
2018-07-13T20:56:39.712Z,99836.00
2018-07-13T20:58:46.064Z,99839.00
2018-07-13T21:00:52.710Z,99845.00
2018-07-13T21:03:00.179Z,99836.00
2018-07-13T21:05:07.557Z,99845.00
2018-07-13T21:07:14.903Z,99843.00
2018-07-13T21:09:20.394Z,99841.00
2018-07-13T21:11:26.706Z,99846.00
2018-07-13T21:13:34.134Z,99841.00
2018-07-13T21:15:39.290Z,99846.00
2018-07-13T21:17:45.995Z,99852.00
2018-07-13T21:19:52.070Z,99852.00
2018-07-13T21:21:57.543Z,99859.00
2018-07-13T21:24:03.395Z,99850.00
2018-07-13T21:26:09.099Z,99849.00
2018-07-13T21:28:15.499Z,99846.00
2018-07-13T21:30:21.758Z,99853.00
2018-07-13T21:32:26.713Z,99848.00
2018-07-13T21:34:32.258Z,99852.00
2018-07-13T21:36:37.933Z,99846.00
2018-07-13T21:38:43.792Z,99851.00
2018-07-13T21:40:47.924Z,99848.00
2018-07-13T21:42:55.109Z,99850.00
2018-07-13T21:45:01.129Z,99855.00
2018-07-13T21:47:08.011Z,99858.00
2018-07-13T21:49:12.664Z,99845.00
2018-07-13T21:51:17.273Z,99849.00
2018-07-13T21:53:21.517Z,99856.00
2018-07-13T21:55:25.994Z,99857.00
2018-07-13T21:57:30.577Z,99848.00
2018-07-13T21:59:34.882Z,99848.00
2018-07-13T22:01:39.496Z,99848.00
2018-07-13T22:03:47.057Z,99855.00
2018-07-13T22:05:54.336Z,99852.00
2018-07-13T22:07:58.795Z,99848.00
2018-07-13T22:10:03.342Z,99852.00
2018-07-13T22:12:07.838Z,99855.00
2018-07-13T22:14:12.306Z,99852.00
2018-07-13T22:16:16.754Z,99846.00
2018-07-13T22:18:21.187Z,99855.00
2018-07-13T22:20:25.614Z,99852.00
2018-07-13T22:22:30.773Z,99857.00
2018-07-13T22:24:35.424Z,99853.00
2018-07-13T22:26:40.419Z,99861.00
2018-07-13T22:28:44.849Z,99857.00
2018-07-13T22:30:49.530Z,99855.00
2018-07-13T22:32:55.736Z,99856.00
2018-07-13T22:35:01.471Z,99863.00
2018-07-13T22:37:06.596Z,99856.00
2018-07-13T22:39:10.798Z,99858.00
2018-07-13T22:41:16.693Z,99860.00
2018-07-13T22:43:21.330Z,99857.00
2018-07-13T22:45:25.815Z,99866.00
2018-07-13T22:47:31.370Z,99855.00
2018-07-13T22:49:35.898Z,99862.00
2018-07-13T22:51:40.406Z,99860.00
2018-07-13T22:53:44.866Z,99862.00
2018-07-13T22:55:49.310Z,99855.00
2018-07-13T22:57:53.802Z,99867.00
2018-07-13T22:59:58.291Z,99871.00
2018-07-13T23:02:02.746Z,99869.00
2018-07-13T23:04:08.082Z,99865.00
2018-07-13T23:06:12.851Z,99869.00
2018-07-13T23:08:17.344Z,99871.00
2018-07-13T23:10:22.462Z,99872.00
2018-07-13T23:12:27.200Z,99865.00
2018-07-13T23:14:31.341Z,99866.00
2018-07-13T23:16:35.786Z,99862.00
2018-07-13T23:18:40.314Z,99868.00
2018-07-13T23:20:44.781Z,99869.00
2018-07-13T23:22:49.312Z,99855.00
2018-07-13T23:24:53.892Z,99859.00
2018-07-13T23:26:59.973Z,99859.00
2018-07-13T23:29:04.479Z,99871.00
2018-07-13T23:31:08.926Z,99868.00
2018-07-13T23:33:13.579Z,99854.00
2018-07-13T23:35:18.107Z,99858.00
2018-07-13T23:37:24.406Z,99857.00
2018-07-13T23:39:31.479Z,99857.00
2018-07-13T23:41:35.934Z,99856.00
2018-07-13T23:43:40.354Z,99856.00
2018-07-13T23:45:45.371Z,99857.00
2018-07-13T23:47:49.987Z,99858.00
2018-07-13T23:49:54.335Z,99852.00
2018-07-13T23:52:01.573Z,99859.00
2018-07-13T23:54:06.115Z,99857.00
2018-07-13T23:56:11.135Z,99852.00
2018-07-13T23:58:15.574Z,99856.00
